Livingston, KY (40445)

2:09 PM EST on February 23, 2017 (GMT -0500)
Denny Subdivision | | Change Station

Elev 1181 ft 37.31 °N, 84.39 °W | Updated 4 seconds ago

Overcast
Overcast
66.6 °F
Feels Like 66.6 °F
N
5.4
Wind Variable Wind from West
Gusts 7.0 mph

Today
High -- | Low -- °F
--% Chance of Precip.
Yesterday
High -- | Low -- °F
Precip. -- in
Pressure 29.82 in
Visibility 10.0 miles
Clouds Scattered Clouds 3300 ft
Overcast 6500 ft
Dew Point 59 °F
Humidity 77%
Rainfall 0.00 in
Snow Depth Not available.
7:15 AM 6:25 PM
Waning Crescent, 9% visible
METAR KLOZ 231853Z AUTO 21006KT 10SM SCT033 OVC065 20/12 A2983 RMK AO2 SLP096 T02000117
Pressure 29.82 in
Visibility 10.0 miles
Clouds Scattered Clouds 3300 ft
Overcast 6500 ft
Dew Point 59 °F
Humidity 77%
Rainfall 0.00 in
Snow Depth Not available.
7:15 AM 6:25 PM
Waning Crescent, 9% visible
METAR KLOZ 231853Z AUTO 21006KT 10SM SCT033 OVC065 20/12 A2983 RMK AO2 SLP096 T02000117

Get Your Daily Forecast Email!

Thanks for signing up!

Be on the lookout for a verification email in your inbox.

You'll start receiving the daily forecast at 8 AM.

×

10-Day Weather Forecast

Almanac

Astronomy

Feb. 23, 2017 Rise Set
Actual Time
Civil Twilight
Nautical Twilight
Astronomical Twilight
Moon
Length of Visible Light
Length of Day
Tomorrow will be .
, % of the Moon is Illuminated

Today's Extremes

State Highs State Lows

Community

WunderPhotos

Upload Photos

1,962,540 photos uploaded!

WunderBlog® & News

Nearby

Air Quality

  Air Quality AQ Index Pollutant
Not available.

Snow Depth

Station Depth Elevation

Earthquake Activity

City Distance Mag. Time & Date
Minimum magnitude displayed is 2.5.

Coastal Water Temperatures

Place Temperature

Stations

Nearby Weather Stations

Station Location Temp. Windchill Dew Point Humidity Wind Precip. Elev Updated Type
                   

Watches & Warnings

There are currently no watches in effect.